Latest Weather Observations for Coonawarra

IDS60801

Issued at 11:31 am CDT Tuesday 28 February 2017 (issued every 30 minutes, with the page automatically refreshed every 10 minutes)

About weather observations | Map of weather stations | Latest weather observations for SA | Other Formats
Station Details ID: 026091 Name: COONAWARRA Lat: -37.29 Lon: 140.83 Height: 57.0 m
Data from the previous 72 hours. | See also: Recent months at Coonawarra
Date/Time
CDT
Temp
°C
App
Temp
°C
Dew
Point
°C
Rel
Hum
%
Delta-T
°C
Wind Press
QNH
hPa
Press
MSL
hPa
Rain since
9am
mm
Dir  Spd
km/h
Gust
km/h
Spd
kts
Gust
kts
28/11:00am 31.2 27.7 8.8 25 12.5 NNE 17 26 9 14 1020.2 1020.1 0.0
28/10:30am 30.1 26.0 8.8 26 11.8 NNE 20 30 11 16 1020.3 1020.2 0.0
28/10:00am 28.6 24.9 9.6 30 10.6 NNE 19 28 10 15 1020.4 1020.3 0.0
28/09:30am 27.1 22.7 9.0 32 9.9 NNE 22 32 12 17 1020.3 1020.2 0.0
28/09:00am 25.7 22.8 9.7 36 8.8 NE 15 22 8 12 1020.1 1020.0 0.0
28/08:30am 24.2 21.3 9.7 39 7.9 NE 15 24 8 13 1020.1 1020.0 0.0
28/08:00am 22.3 20.3 10.2 46 6.6 NE 11 15 6 8 1019.9 1019.8 0.0
28/07:30am 19.8 17.4 10.1 53 5.2 NE 13 17 7 9 1019.6 1019.5 0.0
28/07:00am 16.5 14.2 10.5 67 3.2 NE 13 15 7 8 1019.3 1019.2 0.0
28/06:30am 15.7 13.9 10.8 72 2.6 ENE 11 13 6 7 1019.0 1018.9 0.0
28/06:00am 13.9 12.7 11.5 85 1.3 ENE 9 9 5 5 1018.9 1018.8 0.0
28/05:30am 13.9 12.3 11.7 86 1.2 ENE 11 13 6 7 1018.7 1018.6 0.0
28/05:00am 13.9 12.8 12.0 88 1.0 ENE 9 11 5 6 1018.5 1018.4 0.0
28/04:30am 14.1 13.4 12.1 88 1.1 E 7 7 4 4 1018.4 1018.3 0.0
28/04:00am 14.4 14.0 12.4 88 1.1 ESE 6 7 3 4 1018.5 1018.4 0.0
28/03:30am 15.0 14.5 12.6 85 1.3 ESE 7 9 4 5 1018.7 1018.6 0.0
28/03:00am 16.0 15.1 12.7 81 1.8 ESE 9 9 5 5 1018.8 1018.7 0.0
28/02:30am 16.9 16.1 12.8 77 2.3 ESE 9 11 5 6 1019.0 1018.9 0.0
28/02:00am 18.3 17.5 13.0 71 3.0 ESE 9 11 5 6 1019.1 1019.0 0.0
28/01:30am 18.2 17.7 13.8 75 2.5 E 9 11 5 6 1019.0 1018.9 0.0
28/01:00am 19.5 18.7 13.0 66 3.7 SE 9 9 5 5 1019.1 1019.0 0.0
28/12:30am 20.4 19.6 13.0 62 4.2 SE 9 13 5 7 1019.1 1019.0 0.0
28/12:00am 22.1 20.8 12.6 55 5.4 ESE 11 15 6 8 1019.1 1019.0 0.0
 
Date/Time
CDT
Temp
°C
App
Temp
°C
Dew
Point
°C
Rel
Hum
%
Delta-T
°C
Wind Press
QNH
hPa
Press
MSL
hPa
Rain since
9am
mm
Dir  Spd
km/h
Gust
km/h
Spd
kts
Gust
kts
27/11:30pm 23.1 21.8 12.6 51 6.0 SE 11 15 6 8 1019.1 1019.0 0.0
27/11:00pm 24.3 22.5 12.0 46 7.0 SE 13 15 7 8 1019.2 1019.1 0.0
27/10:30pm 25.2 22.9 11.9 43 7.6 SE 15 20 8 11 1019.2 1019.1 0.0
27/10:00pm 25.3 23.4 11.8 43 7.7 SSE 13 19 7 10 1019.2 1019.1 0.0
27/09:30pm 24.8 23.4 12.2 45 7.2 SSE 11 17 6 9 1019.0 1018.9 0.0
27/09:00pm 24.9 23.6 12.4 45 7.2 S 11 15 6 8 1018.8 1018.7 0.0
27/08:30pm 25.1 23.9 12.8 46 7.1 S 11 15 6 8 1018.5 1018.4 0.0
27/08:00pm 27.3 25.0 11.8 38 8.9 S 15 24 8 13 1018.2 1018.1 0.0
27/07:30pm 29.0 25.4 10.5 31 10.5 S 20 30 11 16 1017.9 1017.8 0.0
27/07:00pm 30.7 25.3 9.6 27 11.9 S 28 39 15 21 1017.5 1017.4 0.0
27/06:55pm 31.0 25.7 9.8 27 12.0 S 28 39 15 21 1017.4 1017.3 0.0
27/06:30pm 34.5 33.2 9.3 21 14.4 SSW 6 13 3 7 1017.2 1017.1 0.0
27/06:00pm 33.1 32.1 10.2 24 13.2 NNW 6 7 3 4 1016.9 1016.8 0.0
27/05:30pm 35.0 32.5 6.6 17 15.6 SSE 9 11 5 6 1016.8 1016.7 0.0
27/05:00pm 34.9 32.0 6.7 17 15.5 ENE 11 22 6 12 1016.9 1016.8 0.0
27/04:30pm 34.7 32.2 6.6 17 15.4 E 9 17 5 9 1017.1 1017.0 0.0
27/04:00pm 34.0 31.1 8.1 20 14.5 NNE 13 24 7 13 1017.4 1017.3 0.0
27/03:30pm 35.0 32.6 7.2 18 15.4 N 9 19 5 10 1017.5 1017.4 0.0
27/03:00pm 34.7 32.4 7.6 19 15.1 NNW 9 15 5 8 1017.7 1017.6 0.0
27/02:30pm 34.5 32.0 8.4 20 14.7 NNW 11 22 6 12 1018.2 1018.1 0.0
27/02:00pm 34.3 31.8 8.3 20 14.6 NW 11 26 6 14 1018.6 1018.5 0.0
27/01:30pm 33.4 30.6 8.7 21 13.9 NW 13 22 7 12 1018.7 1018.6 0.0
27/01:00pm 33.5 30.9 9.2 22 13.8 NNW 13 24 7 13 1019.0 1018.9 0.0
27/12:30pm 33.6 30.9 10.2 24 13.5 NNE 15 26 8 14 1019.2 1019.1 0.0
27/12:00pm 32.7 30.0 10.2 25 12.9 NNE 15 22 8 12 1019.6 1019.5 0.0
27/11:30am 31.2 28.1 10.4 27 11.9 NNE 17 28 9 15 1019.8 1019.7 0.0
27/11:00am 30.4 27.8 10.6 29 11.3 N 15 24 8 13 1020.1 1020.0 0.0
27/10:30am 29.4 26.4 10.8 31 10.6 N 17 24 9 13 1020.2 1020.1 0.0
27/10:00am 27.9 25.1 11.3 35 9.5 NNE 17 24 9 13 1020.4 1020.3 0.0
27/09:30am 26.4 23.6 11.5 39 8.5 NNE 17 26 9 14 1020.2 1020.1 0.0
27/09:00am 24.6 22.3 11.9 45 7.2 NE 15 24 8 13 1020.2 1020.1 0.0
27/08:30am 19.9 21.2 15.1 74 2.8 SE 2 6 1 3 1020.2 1020.1 0.0
27/08:00am 15.0 16.1 13.6 91 0.8 CALM 0 0 0 0 1020.1 1020.0 0.0
27/07:30am 12.4 12.9 11.6 95 0.4 CALM 0 0 0 0 1019.9 1019.8 0.0
27/07:00am 10.4 10.2 9.2 92 0.6 CALM 0 0 0 0 1019.7 1019.6 0.0
27/06:30am 10.1 9.5 9.1 93 0.5 SE 2 6 1 3 1019.5 1019.4 0.0
27/06:00am 10.4 9.9 9.4 93 0.5 SE 2 6 1 3 1019.3 1019.2 0.0
27/05:30am 11.0 10.0 10.2 95 0.4 SE 6 7 3 4 1019.1 1019.0 0.0
27/05:00am 11.2 10.1 10.0 92 0.6 ESE 6 9 3 5 1018.9 1018.8 0.0
27/04:30am 12.5 11.6 11.4 93 0.6 SE 7 7 4 4 1018.8 1018.7 0.0
27/04:00am 11.8 10.9 10.8 94 0.5 SSE 6 7 3 4 1018.9 1018.8 0.0
27/03:30am 12.6 11.7 11.3 92 0.7 S 7 9 4 5 1018.8 1018.7 0.0
27/03:00am 13.1 12.4 12.0 93 0.6 SE 7 9 4 5 1018.8 1018.7 0.0
27/02:30am 13.4 12.6 11.7 89 0.9 SSE 7 9 4 5 1019.1 1019.0 0.0
27/02:00am 14.4 14.0 12.9 91 0.8 SE 7 11 4 6 1019.2 1019.1 0.0
27/01:30am 14.3 13.4 12.5 89 1.0 S 9 11 5 6 1019.4 1019.3 0.0
27/01:00am 14.3 13.3 12.3 88 1.1 S 9 9 5 5 1019.4 1019.3 0.0
27/12:30am 15.4 14.3 13.1 86 1.3 S 11 13 6 7 1019.5 1019.4 0.0
27/12:00am 16.2 15.2 13.3 83 1.6 S 11 15 6 8 1019.6 1019.5 0.0
 
Date/Time
CDT
Temp
°C
App
Temp
°C
Dew
Point
°C
Rel
Hum
%
Delta-T
°C
Wind Press
QNH
hPa
Press
MSL
hPa
Rain since
9am
mm
Dir  Spd
km/h
Gust
km/h
Spd
kts
Gust
kts
26/11:30pm 16.4 15.1 13.6 83 1.6 S 13 15 7 8 1019.7 1019.6 0.0
26/11:00pm 17.2 16.3 13.7 80 2.0 SSE 11 17 6 9 1019.8 1019.7 0.0
26/10:30pm 17.8 16.9 13.8 77 2.3 SSE 11 15 6 8 1019.8 1019.7 0.0
26/10:00pm 18.2 16.9 13.8 75 2.5 S 13 15 7 8 1019.8 1019.7 0.0
26/09:30pm 19.1 17.8 13.7 71 3.1 S 13 15 7 8 1019.5 1019.4 0.0
26/09:00pm 20.2 18.9 13.6 66 3.8 S 13 19 7 10 1019.1 1019.0 0.0
26/08:30pm 21.2 19.5 13.6 62 4.4 S 15 20 8 11 1018.7 1018.6 0.0
26/08:00pm 22.7 20.6 13.6 56 5.3 S 17 24 9 13 1018.3 1018.2 0.0
26/07:30pm 24.7 22.0 13.0 48 6.8 S 19 26 10 14 1018.0 1017.9 0.0
26/07:00pm 27.2 24.7 12.2 39 8.7 SSW 17 24 9 13 1017.6 1017.5 0.0
26/06:30pm 30.2 28.2 7.3 23 12.4 WSW 7 9 4 5 1017.4 1017.3 0.0
26/06:00pm 30.6 28.6 6.2 21 13.0 WSW 6 7 3 4 1017.3 1017.2 0.0
26/05:30pm 29.7 27.0 5.5 21 12.7 SSW 9 15 5 8 1017.2 1017.1 0.0
26/05:00pm 30.4 28.8 6.2 21 12.9 SSW 4 11 2 6 1017.0 1016.9 0.0
26/04:30pm 29.6 27.3 5.9 22 12.5 SE 7 19 4 10 1017.2 1017.1 0.0
26/04:00pm 29.9 27.6 5.8 22 12.7 N 7 11 4 6 1017.4 1017.3 0.0
26/03:30pm 29.2 27.1 6.7 24 12.0 NE 7 28 4 15 1017.8 1017.7 0.0
26/03:00pm 28.4 26.0 7.1 26 11.4 S 9 15 5 8 1018.1 1018.0 0.0
26/02:30pm 27.5 24.8 7.2 27 10.8 WNW 11 15 6 8 1018.5 1018.4 0.0
26/02:00pm 27.3 25.5 8.0 29 10.4 ENE 7 17 4 9 1018.9 1018.8 0.0
26/01:30pm 26.7 24.7 8.7 32 9.8 E 9 17 5 9 1019.1 1019.0 0.0
26/01:00pm 25.1 22.7 6.9 31 9.5 ENE 9 15 5 8 1019.5 1019.4 0.0
26/12:30pm 24.4 22.0 8.5 36 8.5 NNE 11 19 6 10 1019.9 1019.8 0.0
26/12:00pm 24.2 22.5 10.0 40 7.8 E 9 17 5 9 1020.1 1020.0 0.0
26/11:30am 22.7 21.0 10.0 44 6.9 ENE 9 15 5 8 1020.4 1020.3 0.0
26/11:00am 21.8 20.0 10.7 49 6.1 ESE 11 19 6 10 1020.7 1020.6 0.0
26/10:30am 20.2 18.1 11.3 56 4.9 SE 13 20 7 11 1020.9 1020.8 0.0
26/10:00am 18.7 16.2 11.2 61 4.1 ESE 15 20 8 11 1021.1 1021.0 0.0
26/09:30am 17.5 14.1 11.4 67 3.3 ESE 20 26 11 14 1021.0 1020.9 0.0
26/09:00am 17.0 14.8 12.1 73 2.7 SE 15 24 8 13 1020.9 1020.8 0.0
26/08:30am 14.3 12.4 11.9 85 1.3 SSE 13 17 7 9 1021.0 1020.9 0.0
26/08:00am 11.3 10.2 10.1 92 0.6 S 6 9 3 5 1021.2 1021.1 0.0
26/07:30am 8.2 7.6 7.6 96 0.3 CALM 0 0 0 0 1021.2 1021.1 0.0
26/07:00am 6.7 5.7 5.8 94 0.4 CALM 0 0 0 0 1021.2 1021.1 0.0
26/06:30am 8.2 5.9 7.6 96 0.3 SSW 9 9 5 5 1020.9 1020.8 0.0
26/06:00am 8.1 5.7 7.2 94 0.4 SSW 9 9 5 5 1021.1 1021.0 0.0
26/05:30am 6.4 3.7 5.5 94 0.4 SSW 9 9 5 5 1020.8 1020.7 0.0
26/05:00am 7.2 5.0 6.3 94 0.4 SSE 7 9 4 5 1020.6 1020.5 0.0
26/04:30am 5.6 3.0 4.2 91 0.6 S 7 11 4 6 1020.8 1020.7 0.0
26/04:00am 5.4 4.1 4.0 91 0.6 CALM 0 0 0 0 1021.1 1021.0 0.0
26/03:30am 5.6 4.4 4.4 92 0.5 CALM 0 0 0 0 1021.2 1021.1 0.0
26/03:00am 6.5 4.3 5.4 93 0.5 S 6 7 3 4 1021.4 1021.3 0.0
26/02:30am 7.2 5.1 5.6 89 0.7 SSW 6 7 3 4 1021.6 1021.5 0.0
26/02:00am 7.8 6.1 6.0 88 0.8 SSW 4 6 2 3 1022.0 1021.9 0.0
26/01:30am 7.4 5.1 5.6 88 0.8 S 7 9 4 5 1022.3 1022.2 0.0
26/01:00am 8.5 6.3 6.1 85 1.1 SSE 7 11 4 6 1022.7 1022.6 0.0
26/12:30am 7.7 5.4 5.7 87 0.9 SSW 7 9 4 5 1023.0 1022.9 0.0
26/12:00am 8.5 5.9 5.9 84 1.2 SSW 9 11 5 6 1023.1 1023.0 0.0
 
Date/Time
CDT
Temp
°C
App
Temp
°C
Dew
Point
°C
Rel
Hum
%
Delta-T
°C
Wind Press
QNH
hPa
Press
MSL
hPa
Rain since
9am
mm
Dir  Spd
km/h
Gust
km/h
Spd
kts
Gust
kts
25/11:30pm 9.6 7.1 6.4 80 1.5 S 9 9 5 5 1023.6 1023.4 0.0
25/11:00pm 10.6 8.0 6.3 75 2.0 SSE 9 11 5 6 1023.9 1023.7 0.0
25/10:30pm 12.2 9.3 6.3 67 2.8 SSE 11 15 6 8 1023.9 1023.7 0.0
25/10:00pm 12.9 9.2 6.4 64 3.1 SSE 15 20 8 11 1024.2 1024.0 0.0
25/09:30pm 13.6 8.9 6.0 60 3.6 SSE 20 28 11 15 1024.2 1024.0 0.0
25/09:00pm 14.1 9.6 6.1 58 3.8 SE 19 26 10 14 1024.0 1023.8 0.0
25/08:30pm 14.9 9.8 6.2 56 4.2 SSE 22 35 12 19 1023.8 1023.6 0.0
25/08:00pm 15.8 11.1 5.3 49 5.0 SSE 19 26 10 14 1023.6 1023.4 0.0
25/07:30pm 17.0 11.8 5.3 46 5.6 SE 22 33 12 18 1023.2 1023.1 0.0
25/07:00pm 18.3 12.7 3.5 37 6.9 SE 22 30 12 16 1023.0 1022.9 0.0
25/06:30pm 18.7 12.8 3.9 37 7.0 SSE 24 33 13 18 1022.8 1022.7 0.0
25/06:00pm 20.0 14.3 4.7 36 7.4 SE 24 35 13 19 1022.5 1022.4 0.0
25/05:30pm 20.4 14.7 5.1 36 7.5 SSE 24 39 13 21 1022.3 1022.2 0.0
25/05:00pm 20.4 14.8 5.6 38 7.3 SSE 24 37 13 20 1022.5 1022.4 0.0
25/04:30pm 21.4 16.1 5.2 34 8.0 S 22 35 12 19 1022.8 1022.7 0.0
25/04:00pm 21.3 15.3 5.3 35 7.9 SSE 26 37 14 20 1022.9 1022.8 0.0
25/03:30pm 21.6 16.0 3.7 31 8.6 SSE 22 41 12 22 1023.1 1023.0 0.0
25/03:00pm 21.5 15.6 4.1 32 8.4 SSE 24 35 13 19 1023.6 1023.4 0.0
25/02:30pm 21.4 15.8 5.2 34 8.0 SSE 24 35 13 19 1023.7 1023.5 0.0
25/02:00pm 21.3 16.3 4.7 33 8.1 SSE 20 30 11 16 1024.1 1023.9 0.0
25/01:30pm 20.8 15.0 4.5 34 7.9 S 24 35 13 19 1024.6 1024.4 0.0
25/01:00pm 20.0 14.6 4.4 35 7.5 SSE 22 32 12 17 1024.8 1024.6 0.0
25/12:30pm 19.7 14.8 5.1 38 7.1 SE 20 32 11 17 1025.1 1024.9 0.0
25/12:00pm 19.6 14.8 5.5 39 6.9 SSE 20 32 11 17 1025.5 1025.3 0.0

Other Formats:

Comma delimited format used in spreadsheet applications
http://www.bom.gov.au/fwo/IDS60801/IDS60801.94817.axf

JavaScript Object Notation format (JSON) in row-major order
http://www.bom.gov.au/fwo/IDS60801/IDS60801.94817.json